createdAt,value
2023-03-26T00:00:04.797Z,0.5334
2023-03-26T00:01:06.431Z,0.5249
2023-03-26T00:02:08.255Z,0.5260
2023-03-26T00:03:09.703Z,0.5294
2023-03-26T00:04:11.468Z,0.5379
2023-03-26T00:05:13.102Z,0.5471
2023-03-26T00:06:14.664Z,0.5488
2023-03-26T00:07:16.403Z,0.5428
2023-03-26T00:08:18.068Z,0.5346
2023-03-26T00:09:19.578Z,0.5343
2023-03-26T00:10:21.365Z,0.5450
2023-03-26T00:11:22.937Z,0.5483
2023-03-26T00:12:24.584Z,0.5512
2023-03-26T00:13:26.231Z,0.5514
2023-03-26T00:14:27.862Z,0.5635
2023-03-26T00:15:29.484Z,0.5620
2023-03-26T00:16:31.197Z,0.5560
2023-03-26T00:17:32.830Z,0.5356
2023-03-26T00:18:34.504Z,0.5255
2023-03-26T00:19:36.090Z,0.5280
2023-03-26T00:20:37.740Z,0.5248
2023-03-26T00:21:39.394Z,0.5275
2023-03-26T00:22:41.109Z,0.5257
2023-03-26T00:23:42.671Z,0.5249
2023-03-26T00:24:44.339Z,0.5301
2023-03-26T00:25:46.771Z,0.5332
2023-03-26T00:26:47.648Z,0.5342
2023-03-26T00:27:49.294Z,0.5316
2023-03-26T00:28:50.953Z,0.5330
2023-03-26T00:29:52.563Z,0.5375
2023-03-26T00:30:54.279Z,0.5433
2023-03-26T00:31:55.871Z,0.5519
2023-03-26T00:32:57.570Z,0.5463
2023-03-26T00:33:59.161Z,0.5495
2023-03-26T00:35:00.845Z,0.5531
2023-03-26T00:36:04.397Z,0.5560
2023-03-26T00:37:04.125Z,0.5559
2023-03-26T00:38:05.776Z,0.5552
2023-03-26T00:39:07.417Z,0.5544
2023-03-26T00:40:09.040Z,0.5573
2023-03-26T00:41:10.712Z,0.5581
2023-03-26T00:42:12.342Z,0.5607
2023-03-26T00:43:14.019Z,0.5620
2023-03-26T00:44:15.643Z,0.5513
2023-03-26T00:45:17.304Z,0.5380
2023-03-26T00:46:18.998Z,0.5325
2023-03-26T00:47:20.761Z,0.5332
2023-03-26T00:48:28.846Z,0.5267
2023-03-26T00:49:23.890Z,0.5247
2023-03-26T00:50:25.529Z,0.5225
2023-03-26T00:51:27.218Z,0.5298
2023-03-26T00:52:28.833Z,0.5220
2023-03-26T00:53:30.667Z,0.5297
2023-03-26T00:54:32.142Z,0.5395
2023-03-26T00:55:33.805Z,0.5399
2023-03-26T00:56:35.476Z,0.5357
2023-03-26T00:57:37.185Z,0.5314
2023-03-26T00:58:38.751Z,0.5298
2023-03-26T00:59:40.403Z,0.5355
2023-03-26T01:00:42.034Z,0.5316
2023-03-26T01:01:43.726Z,0.5242
2023-03-26T01:02:45.435Z,0.5206
2023-03-26T01:04:04.830Z,0.5254
2023-03-26T01:04:48.759Z,0.5290
2023-03-26T01:05:50.303Z,0.5379
2023-03-26T01:06:51.916Z,0.5367
2023-03-26T01:07:53.590Z,0.5364
2023-03-26T01:08:55.251Z,0.5328
2023-03-26T01:09:56.871Z,0.5314
2023-03-26T01:10:58.514Z,0.5355
2023-03-26T01:12:00.181Z,0.5392
2023-03-26T01:13:01.812Z,0.5496
2023-03-26T01:14:03.502Z,0.5497
2023-03-26T01:15:05.124Z,0.5461
2023-03-26T01:16:06.822Z,0.5465
2023-03-26T01:17:08.405Z,0.5381
2023-03-26T01:18:10.092Z,0.5325
2023-03-26T01:19:11.721Z,0.5244
2023-03-26T01:20:13.376Z,0.5261
2023-03-26T01:21:15.000Z,0.5227
2023-03-26T01:22:16.687Z,0.5104
2023-03-26T01:23:18.326Z,0.5088
2023-03-26T01:24:20.001Z,0.5178
2023-03-26T01:25:21.604Z,0.5226
2023-03-26T01:26:23.261Z,0.5237
2023-03-26T01:27:24.902Z,0.5330
2023-03-26T01:28:26.573Z,0.5343
2023-03-26T01:29:28.242Z,0.5344
2023-03-26T01:30:29.869Z,0.5331
2023-03-26T01:31:31.483Z,0.5392
2023-03-26T01:32:33.321Z,0.5374
2023-03-26T01:33:34.855Z,0.5413
2023-03-26T01:34:36.502Z,0.5391
2023-03-26T01:35:38.118Z,0.5382
2023-03-26T01:36:39.765Z,0.5410
2023-03-26T01:37:41.381Z,0.5440
2023-03-26T01:38:43.060Z,0.5526
2023-03-26T01:39:44.713Z,0.5538
2023-03-26T01:40:46.351Z,0.5528
2023-03-26T01:41:47.986Z,0.5501
2023-03-26T01:42:49.661Z,0.5516
2023-03-26T01:43:51.289Z,0.5494
2023-03-26T01:44:52.978Z,0.5391
2023-03-26T01:45:54.738Z,0.5355
2023-03-26T01:46:56.339Z,0.5249
2023-03-26T01:47:57.905Z,0.5209
2023-03-26T01:48:59.532Z,0.5141
2023-03-26T01:50:01.207Z,0.5193
2023-03-26T01:51:02.838Z,0.5141
2023-03-26T01:52:04.470Z,0.5139
2023-03-26T01:53:06.143Z,0.5126
2023-03-26T01:54:07.840Z,0.5132
2023-03-26T01:55:09.533Z,0.5126
2023-03-26T01:56:11.172Z,0.5143
2023-03-26T01:57:12.822Z,0.5109
2023-03-26T01:58:14.439Z,0.5182
2023-03-26T01:59:16.117Z,0.5152
2023-03-26T02:00:17.777Z,0.5249
2023-03-26T02:01:19.481Z,0.5247
2023-03-26T02:02:21.173Z,0.5180
2023-03-26T02:03:22.854Z,0.5151
2023-03-26T02:04:24.362Z,0.5095
2023-03-26T02:05:26.063Z,0.5050
2023-03-26T02:06:27.652Z,0.5098
2023-03-26T02:07:29.328Z,0.5120
2023-03-26T02:08:30.963Z,0.5104
2023-03-26T02:09:32.614Z,0.5133
2023-03-26T02:10:34.270Z,0.5187
2023-03-26T02:11:36.224Z,0.5312
2023-03-26T02:12:37.544Z,0.5400
2023-03-26T02:13:39.217Z,0.5365
2023-03-26T02:14:40.862Z,0.5368
2023-03-26T02:15:42.541Z,0.5365
2023-03-26T02:16:44.166Z,0.5329
2023-03-26T02:17:45.827Z,0.5353
2023-03-26T02:18:47.498Z,0.5379
2023-03-26T02:19:49.125Z,0.5369
2023-03-26T02:20:50.773Z,0.5446
2023-03-26T02:21:52.408Z,0.5429
2023-03-26T02:22:54.043Z,0.5407
2023-03-26T02:23:55.715Z,0.5434
2023-03-26T02:24:57.349Z,0.5482
2023-03-26T02:25:59.043Z,0.5434
2023-03-26T02:27:00.642Z,0.5443
2023-03-26T02:28:02.304Z,0.5476
2023-03-26T02:29:03.941Z,0.5420
2023-03-26T02:30:05.606Z,0.5381
2023-03-26T02:31:07.274Z,0.5345
2023-03-26T02:32:08.909Z,0.5278
2023-03-26T02:33:10.591Z,0.5289
2023-03-26T02:34:12.220Z,0.5365
2023-03-26T02:35:13.894Z,0.5348
2023-03-26T02:36:15.601Z,0.5333
2023-03-26T02:37:17.145Z,0.5354
2023-03-26T02:38:18.775Z,0.5415
2023-03-26T02:39:20.445Z,0.5405
2023-03-26T02:40:22.096Z,0.5333
2023-03-26T02:41:23.749Z,0.5344
2023-03-26T02:42:25.385Z,0.5440
2023-03-26T02:43:27.019Z,0.5543
2023-03-26T02:44:28.680Z,0.5486
2023-03-26T02:45:30.315Z,0.5438
2023-03-26T02:46:32.054Z,0.5474
2023-03-26T02:47:33.692Z,0.5571
2023-03-26T02:48:35.271Z,0.5589
2023-03-26T02:49:36.899Z,0.5557
2023-03-26T02:50:38.578Z,0.5571
2023-03-26T02:51:40.210Z,0.5572
2023-03-26T02:52:41.871Z,0.5492
2023-03-26T02:53:43.496Z,0.5534
2023-03-26T02:54:45.154Z,0.5669
2023-03-26T02:55:46.792Z,0.5577
2023-03-26T02:56:48.505Z,0.5510
2023-03-26T02:57:50.096Z,0.5397
2023-03-26T02:58:51.757Z,0.5372
2023-03-26T02:59:53.391Z,0.5321
2023-03-26T03:00:55.143Z,0.5284
2023-03-26T03:01:56.759Z,0.5379
2023-03-26T03:02:58.443Z,0.5376
2023-03-26T03:03:59.984Z,0.5388
2023-03-26T03:05:01.765Z,0.5481
2023-03-26T03:06:03.269Z,0.5515
2023-03-26T03:07:05.069Z,0.5485
2023-03-26T03:08:06.643Z,0.5475
2023-03-26T03:09:08.284Z,0.5589
2023-03-26T03:10:09.973Z,0.5743
2023-03-26T03:11:11.592Z,0.5647
2023-03-26T03:12:13.299Z,0.5645
2023-03-26T03:13:14.941Z,0.5588
2023-03-26T03:14:16.511Z,0.5639
2023-03-26T03:15:18.247Z,0.5602
2023-03-26T03:16:19.921Z,0.5469
2023-03-26T03:17:21.559Z,0.5337
2023-03-26T03:18:23.194Z,0.5304
2023-03-26T03:19:24.745Z,0.5362
2023-03-26T03:20:26.363Z,0.5426
2023-03-26T03:21:28.037Z,0.5527
2023-03-26T03:22:29.689Z,0.5559
2023-03-26T03:23:31.319Z,0.5545
2023-03-26T03:24:32.961Z,0.5504
2023-03-26T03:25:34.636Z,0.5450
2023-03-26T03:26:36.253Z,0.5397
2023-03-26T03:27:37.949Z,0.5343
2023-03-26T03:28:39.566Z,0.5192
2023-03-26T03:29:41.212Z,0.5164
2023-03-26T03:30:42.897Z,0.5176
2023-03-26T03:31:44.520Z,0.5191
2023-03-26T03:32:46.238Z,0.5088
2023-03-26T03:33:47.819Z,0.5059
2023-03-26T03:34:49.438Z,0.5079
2023-03-26T03:35:51.113Z,0.5113
2023-03-26T03:36:52.726Z,0.5156
2023-03-26T03:37:54.415Z,0.5227
2023-03-26T03:38:56.041Z,0.5297
2023-03-26T03:39:57.694Z,0.5291
2023-03-26T03:40:59.324Z,0.5325
2023-03-26T03:42:00.998Z,0.5319
2023-03-26T03:43:02.665Z,0.5297
2023-03-26T03:44:04.300Z,0.5373
2023-03-26T03:45:05.928Z,0.5378
2023-03-26T03:46:07.639Z,0.5449
2023-03-26T03:47:09.211Z,0.5441
2023-03-26T03:48:10.942Z,0.5504
2023-03-26T03:49:12.526Z,0.5550
2023-03-26T03:50:14.200Z,0.5530
2023-03-26T03:51:15.841Z,0.5700
2023-03-26T03:52:17.487Z,0.5613
2023-03-26T03:53:19.144Z,0.5572
2023-03-26T03:54:20.786Z,0.5582
2023-03-26T03:55:22.409Z,0.5592
2023-03-26T03:56:24.101Z,0.5533
2023-03-26T03:57:25.728Z,0.5568
2023-03-26T03:58:27.424Z,0.5493
2023-03-26T03:59:29.004Z,0.5523
2023-03-26T04:00:30.696Z,0.5502
2023-03-26T04:01:32.304Z,0.5467
2023-03-26T04:02:34.076Z,0.5509
2023-03-26T04:03:35.778Z,0.5504
2023-03-26T04:04:37.331Z,0.5489
2023-03-26T04:05:38.920Z,0.5525
2023-03-26T04:06:40.579Z,0.5467
2023-03-26T04:07:42.206Z,0.5357
2023-03-26T04:08:43.995Z,0.5419
2023-03-26T04:09:45.504Z,0.5473
2023-03-26T04:10:47.163Z,0.5362
2023-03-26T04:11:48.802Z,0.5312
2023-03-26T04:12:50.461Z,0.5328
2023-03-26T04:13:52.113Z,0.5321
2023-03-26T04:14:53.756Z,0.5273
2023-03-26T04:15:55.656Z,0.5351
2023-03-26T04:16:57.061Z,0.5396
2023-03-26T04:17:58.760Z,0.5451
2023-03-26T04:19:00.371Z,0.5375
2023-03-26T04:20:01.983Z,0.5344
2023-03-26T04:21:03.638Z,0.5321
2023-03-26T04:22:05.288Z,0.5297
2023-03-26T04:23:06.948Z,0.5301
2023-03-26T04:24:08.597Z,0.5349
2023-03-26T04:25:10.259Z,0.5399
2023-03-26T04:26:11.867Z,0.5482
2023-03-26T04:27:13.527Z,0.5488
2023-03-26T04:28:15.162Z,0.5503
2023-03-26T04:29:16.844Z,0.5583
2023-03-26T04:30:18.456Z,0.5514
2023-03-26T04:31:20.163Z,0.5465
2023-03-26T04:32:21.773Z,0.5415
2023-03-26T04:33:23.438Z,0.5309
2023-03-26T04:34:25.127Z,0.5366
2023-03-26T04:35:26.763Z,0.5438
2023-03-26T04:36:28.390Z,0.5538
2023-03-26T04:37:30.020Z,0.5461
2023-03-26T04:38:31.645Z,0.5388
2023-03-26T04:39:33.352Z,0.5395
2023-03-26T04:40:34.969Z,0.5433
2023-03-26T04:41:36.630Z,0.5428
2023-03-26T04:42:38.253Z,0.5462
2023-03-26T04:43:39.929Z,0.5401
2023-03-26T04:44:41.638Z,0.5408
2023-03-26T04:45:43.209Z,0.5433
2023-03-26T04:46:44.853Z,0.5423
2023-03-26T04:47:46.802Z,0.5401
2023-03-26T04:48:48.141Z,0.5464
2023-03-26T04:49:49.839Z,0.5504
2023-03-26T04:50:51.448Z,0.5497
2023-03-26T04:51:53.095Z,0.5467
2023-03-26T04:52:54.750Z,0.5433
2023-03-26T04:53:56.418Z,0.5398
2023-03-26T04:54:58.060Z,0.5396
2023-03-26T04:55:59.699Z,0.5305
2023-03-26T04:57:01.343Z,0.5207
2023-03-26T04:58:02.986Z,0.5228
2023-03-26T04:59:04.628Z,0.5242
2023-03-26T05:00:06.317Z,0.5251
2023-03-26T05:01:10.318Z,0.5247
2023-03-26T05:02:09.620Z,0.5203
2023-03-26T05:03:11.218Z,0.5217
2023-03-26T05:04:12.893Z,0.5244
2023-03-26T05:05:14.543Z,0.5171
2023-03-26T05:06:16.195Z,0.5219
2023-03-26T05:07:17.819Z,0.5175
2023-03-26T05:08:19.492Z,0.5196
2023-03-26T05:09:21.126Z,0.5226
2023-03-26T05:10:22.869Z,0.5312
2023-03-26T05:11:24.430Z,0.5336
2023-03-26T05:12:26.100Z,0.5268
2023-03-26T05:13:27.713Z,0.5312
2023-03-26T05:14:29.390Z,0.5407
2023-03-26T05:15:31.053Z,0.5423
2023-03-26T05:16:32.706Z,0.5485
2023-03-26T05:17:34.382Z,0.5490
2023-03-26T05:18:36.015Z,0.5472
2023-03-26T05:19:37.624Z,0.5441
2023-03-26T05:20:39.328Z,0.5413
2023-03-26T05:21:40.933Z,0.5364
2023-03-26T05:22:42.592Z,0.5316
2023-03-26T05:23:44.233Z,0.5263
2023-03-26T05:24:45.911Z,0.5145
2023-03-26T05:25:47.567Z,0.5188
2023-03-26T05:26:49.205Z,0.5202
2023-03-26T05:27:50.820Z,0.5227
2023-03-26T05:28:52.733Z,0.5282
2023-03-26T05:29:54.109Z,0.5308
2023-03-26T05:30:55.984Z,0.5355
2023-03-26T05:31:57.432Z,0.5393
2023-03-26T05:32:59.125Z,0.5333
2023-03-26T05:34:00.861Z,0.5243
2023-03-26T05:35:02.352Z,0.5226
2023-03-26T05:36:04.081Z,0.5156
2023-03-26T05:37:05.667Z,0.5033
2023-03-26T05:38:07.317Z,0.5100
2023-03-26T05:39:08.947Z,0.5204
2023-03-26T05:40:10.640Z,0.5173
2023-03-26T05:41:12.285Z,0.5192
2023-03-26T05:42:13.922Z,0.5248
2023-03-26T05:43:15.549Z,0.5250
2023-03-26T05:44:17.234Z,0.5263
2023-03-26T05:45:18.853Z,0.5316
2023-03-26T05:46:20.653Z,0.5353
2023-03-26T05:47:22.143Z,0.5340
2023-03-26T05:48:23.828Z,0.5347
2023-03-26T05:49:25.460Z,0.5295
2023-03-26T05:50:27.129Z,0.5267
2023-03-26T05:51:28.775Z,0.5284
2023-03-26T05:52:30.430Z,0.5296
2023-03-26T05:53:32.066Z,0.5367
2023-03-26T05:54:33.740Z,0.5394
2023-03-26T05:55:35.365Z,0.5374
2023-03-26T05:56:37.175Z,0.5291
2023-03-26T05:57:38.734Z,0.5240
2023-03-26T05:58:40.413Z,0.5171
2023-03-26T05:59:42.029Z,0.5124
2023-03-26T06:00:43.705Z,0.5098
2023-03-26T06:01:45.362Z,0.5118
2023-03-26T06:02:47.091Z,0.5096
2023-03-26T06:03:48.707Z,0.5110
2023-03-26T06:04:50.349Z,0.5112
2023-03-26T06:05:51.933Z,0.5096
2023-03-26T06:06:53.634Z,0.5020
2023-03-26T06:07:55.224Z,0.5016
2023-03-26T06:09:01.910Z,0.5110
2023-03-26T06:09:58.533Z,0.5167
2023-03-26T06:11:00.221Z,0.5175
2023-03-26T06:12:01.874Z,0.5232
2023-03-26T06:13:03.513Z,0.5272
2023-03-26T06:14:05.126Z,0.5255
2023-03-26T06:15:06.807Z,0.5256
2023-03-26T06:16:08.459Z,0.5282
2023-03-26T06:17:10.180Z,0.5309
2023-03-26T06:18:11.791Z,0.5273
2023-03-26T06:19:13.519Z,0.5247
2023-03-26T06:20:15.037Z,0.5186
2023-03-26T06:21:16.704Z,0.5156
2023-03-26T06:22:18.358Z,0.5078
2023-03-26T06:23:19.996Z,0.5047
2023-03-26T06:24:21.630Z,0.5096
2023-03-26T06:25:23.295Z,0.5105
2023-03-26T06:26:24.936Z,0.5113
2023-03-26T06:27:26.625Z,0.5092
2023-03-26T06:28:28.244Z,0.5065
2023-03-26T06:29:29.918Z,0.5146
2023-03-26T06:30:31.551Z,0.5231
2023-03-26T06:31:33.257Z,0.5314
2023-03-26T06:32:34.913Z,0.5491
2023-03-26T06:33:36.517Z,0.5572
2023-03-26T06:34:38.146Z,0.5652
2023-03-26T06:35:39.855Z,0.5785
2023-03-26T06:36:41.465Z,0.5794
2023-03-26T06:37:43.146Z,0.5770
2023-03-26T06:38:44.770Z,0.5789
2023-03-26T06:39:46.429Z,0.5741
2023-03-26T06:40:48.069Z,0.5760
2023-03-26T06:41:49.730Z,0.5647
2023-03-26T06:43:08.643Z,0.5633
2023-03-26T06:43:53.048Z,0.5599
2023-03-26T06:44:54.669Z,0.5542
2023-03-26T06:45:56.357Z,0.5421
2023-03-26T06:46:58.046Z,0.5515
2023-03-26T06:47:59.734Z,0.5581
2023-03-26T06:49:01.283Z,0.5632
2023-03-26T06:50:02.977Z,0.5586
2023-03-26T06:51:04.608Z,0.5614
2023-03-26T06:52:06.274Z,0.5676
2023-03-26T06:53:07.913Z,0.5730
2023-03-26T06:54:09.563Z,0.5546
2023-03-26T06:55:11.220Z,0.5620
2023-03-26T06:56:12.873Z,0.5706
2023-03-26T06:57:14.527Z,0.5789
2023-03-26T06:58:16.210Z,0.5859
2023-03-26T06:59:17.846Z,0.6004
2023-03-26T07:00:19.485Z,0.5980
2023-03-26T07:01:21.165Z,0.5784
2023-03-26T07:02:22.819Z,0.5782
2023-03-26T07:03:24.433Z,0.5826
2023-03-26T07:04:26.110Z,0.5802
2023-03-26T07:05:27.781Z,0.5860
2023-03-26T07:06:29.391Z,0.5822
2023-03-26T07:07:31.047Z,0.5792
2023-03-26T07:08:32.720Z,0.5733
2023-03-26T07:09:34.360Z,0.5697
2023-03-26T07:10:35.987Z,0.5745
2023-03-26T07:11:37.656Z,0.5758
2023-03-26T07:12:39.292Z,0.5960
2023-03-26T07:13:40.978Z,0.5922
2023-03-26T07:14:42.601Z,0.5878
2023-03-26T07:15:44.282Z,0.5831
2023-03-26T07:16:45.903Z,0.5865
2023-03-26T07:17:47.577Z,0.5913
2023-03-26T07:18:49.452Z,0.5833
2023-03-26T07:19:50.874Z,0.5864
2023-03-26T07:20:52.605Z,0.5865
2023-03-26T07:21:54.177Z,0.5866
2023-03-26T07:22:55.801Z,0.5817
2023-03-26T07:23:57.493Z,0.5793
2023-03-26T07:24:59.111Z,0.5740
2023-03-26T07:26:00.786Z,0.5850
2023-03-26T07:27:02.429Z,0.6006
2023-03-26T07:28:04.088Z,0.6088
2023-03-26T07:29:05.728Z,0.5994
2023-03-26T07:30:07.396Z,0.5911
2023-03-26T07:31:09.015Z,0.5918
2023-03-26T07:32:10.680Z,0.5915
2023-03-26T07:33:12.314Z,0.6091
2023-03-26T07:34:14.011Z,0.6240
2023-03-26T07:35:15.629Z,0.6329
2023-03-26T07:36:17.304Z,0.6347
2023-03-26T07:37:18.925Z,0.6344
2023-03-26T07:38:20.592Z,0.6405
2023-03-26T07:39:22.250Z,0.6461
2023-03-26T07:40:23.900Z,0.6516
2023-03-26T07:41:25.537Z,0.6467
2023-03-26T07:42:27.223Z,0.6323
2023-03-26T07:43:28.852Z,0.6434
2023-03-26T07:44:30.525Z,0.6479
2023-03-26T07:45:32.165Z,0.6364
2023-03-26T07:46:33.800Z,0.6177
2023-03-26T07:47:35.478Z,0.5995
2023-03-26T07:48:37.104Z,0.6055
2023-03-26T07:49:38.758Z,0.6138
2023-03-26T07:50:40.410Z,0.6016
2023-03-26T07:51:42.048Z,0.5983
2023-03-26T07:52:43.708Z,0.6094
2023-03-26T07:53:45.341Z,0.5938
2023-03-26T07:54:47.048Z,0.6000
2023-03-26T07:55:48.663Z,0.5993
2023-03-26T07:56:50.386Z,0.5983
2023-03-26T07:57:51.936Z,0.6165
2023-03-26T07:58:53.615Z,0.6366
2023-03-26T07:59:55.266Z,0.6424
2023-03-26T08:00:57.125Z,0.6465
2023-03-26T08:01:58.543Z,0.6614
2023-03-26T08:03:00.286Z,0.6736
2023-03-26T08:04:23.424Z,0.6756
2023-03-26T08:05:03.597Z,0.6741
2023-03-26T08:06:05.134Z,0.6796
2023-03-26T08:07:06.803Z,0.6916
2023-03-26T08:08:08.443Z,0.6994
2023-03-26T08:09:10.109Z,0.6959
2023-03-26T08:10:12.016Z,0.6960
2023-03-26T08:11:13.422Z,0.6910
2023-03-26T08:12:15.039Z,0.6994
2023-03-26T08:13:16.732Z,0.7126
2023-03-26T08:14:18.336Z,0.7209
2023-03-26T08:15:20.037Z,0.7067
2023-03-26T08:16:21.666Z,0.6898
2023-03-26T08:17:23.346Z,0.6837
2023-03-26T08:18:24.942Z,0.6706
2023-03-26T08:19:26.612Z,0.6684
2023-03-26T08:20:28.339Z,0.6641
2023-03-26T08:21:29.918Z,0.6694
2023-03-26T08:22:31.591Z,0.6743
2023-03-26T08:23:33.220Z,0.6881
2023-03-26T08:24:34.893Z,0.6920
2023-03-26T08:25:38.001Z,0.6925
2023-03-26T08:26:38.146Z,0.6686
2023-03-26T08:27:39.809Z,0.6633
2023-03-26T08:28:41.471Z,0.6826
2023-03-26T08:29:43.133Z,0.6985
2023-03-26T08:30:44.812Z,0.7091
2023-03-26T08:31:46.411Z,0.7076
2023-03-26T08:32:48.132Z,0.7021
2023-03-26T08:33:49.731Z,0.7079
2023-03-26T08:34:51.402Z,0.6862
2023-03-26T08:35:53.132Z,0.6789
2023-03-26T08:36:54.721Z,0.6792
2023-03-26T08:37:56.332Z,0.6772
2023-03-26T08:38:58.001Z,0.6874
2023-03-26T08:39:59.643Z,0.6870
2023-03-26T08:41:01.332Z,0.6850
2023-03-26T08:42:02.931Z,0.6831
2023-03-26T08:43:04.602Z,0.6916
2023-03-26T08:44:06.260Z,0.6948
2023-03-26T08:45:07.927Z,0.6886
2023-03-26T08:46:09.597Z,0.6936
2023-03-26T08:47:11.204Z,0.6753
2023-03-26T08:48:12.844Z,0.6738
2023-03-26T08:49:14.501Z,0.6907
2023-03-26T08:50:16.238Z,0.6737
2023-03-26T08:51:17.836Z,0.6676
2023-03-26T08:52:19.446Z,0.6753
2023-03-26T08:53:21.116Z,0.6658
2023-03-26T08:54:22.750Z,0.6572
2023-03-26T08:55:24.423Z,0.6649
2023-03-26T08:56:26.098Z,0.6611
2023-03-26T08:57:27.716Z,0.6613
2023-03-26T08:58:29.352Z,0.6552
2023-03-26T08:59:31.029Z,0.6656
2023-03-26T09:00:32.663Z,0.6512
2023-03-26T09:01:34.393Z,0.6428
2023-03-26T09:02:36.030Z,0.6268
2023-03-26T09:03:37.625Z,0.6312
2023-03-26T09:04:39.272Z,0.6269
2023-03-26T09:05:40.958Z,0.6221
2023-03-26T09:06:42.646Z,0.6122
2023-03-26T09:07:44.293Z,0.6065
2023-03-26T09:08:54.212Z,0.6231
2023-03-26T09:09:47.505Z,0.6270
2023-03-26T09:10:49.154Z,0.6204
2023-03-26T09:11:50.823Z,0.6177
2023-03-26T09:12:52.440Z,0.6343
2023-03-26T09:13:54.132Z,0.6393
2023-03-26T09:14:55.757Z,0.6493
2023-03-26T09:15:57.511Z,0.6479
2023-03-26T09:16:59.080Z,0.6399
2023-03-26T09:18:00.762Z,0.6268
2023-03-26T09:19:02.345Z,0.6040
2023-03-26T09:20:04.026Z,0.6023
2023-03-26T09:21:05.673Z,0.5977
2023-03-26T09:22:07.380Z,0.6062
2023-03-26T09:23:08.960Z,0.6082
2023-03-26T09:24:10.624Z,0.6062
2023-03-26T09:25:12.276Z,0.6102
2023-03-26T09:26:13.929Z,0.5931
2023-03-26T09:27:15.589Z,0.5826
2023-03-26T09:28:17.225Z,0.5967
2023-03-26T09:29:18.855Z,0.6131
2023-03-26T09:30:20.505Z,0.6206
2023-03-26T09:31:22.202Z,0.6031
2023-03-26T09:32:23.942Z,0.6055
2023-03-26T09:33:25.477Z,0.6079
2023-03-26T09:34:27.144Z,0.6207
2023-03-26T09:35:28.764Z,0.6233
2023-03-26T09:36:30.472Z,0.6125
2023-03-26T09:37:32.083Z,0.6227
2023-03-26T09:38:33.741Z,0.6191
2023-03-26T09:39:35.363Z,0.6221
2023-03-26T09:40:37.035Z,0.6146
2023-03-26T09:41:38.658Z,0.6178
2023-03-26T09:42:40.359Z,0.6118
2023-03-26T09:43:41.996Z,0.6055
2023-03-26T09:44:43.628Z,0.5908
2023-03-26T09:45:45.275Z,0.5994
2023-03-26T09:46:46.936Z,0.6037
2023-03-26T09:47:48.648Z,0.6002
2023-03-26T09:48:50.237Z,0.5912
2023-03-26T09:49:51.865Z,0.5752
2023-03-26T09:50:53.719Z,0.5698
2023-03-26T09:51:55.146Z,0.5624
2023-03-26T09:52:56.845Z,0.5599
2023-03-26T09:53:58.447Z,0.5733
2023-03-26T09:55:00.162Z,0.5821
2023-03-26T09:56:01.772Z,0.5767
2023-03-26T09:57:03.465Z,0.5858
2023-03-26T09:58:05.134Z,0.5803
2023-03-26T09:59:06.854Z,0.5799
2023-03-26T10:00:08.423Z,0.5865
2023-03-26T10:01:10.144Z,0.5742
2023-03-26T10:02:11.717Z,0.5639
2023-03-26T10:03:13.465Z,0.5694
2023-03-26T10:04:15.024Z,0.5801
2023-03-26T10:05:16.690Z,0.5866
2023-03-26T10:06:18.313Z,0.5903
2023-03-26T10:07:19.984Z,0.5916
2023-03-26T10:08:21.641Z,0.5924
2023-03-26T10:09:23.290Z,0.5917
2023-03-26T10:10:24.906Z,0.5857
2023-03-26T10:11:26.588Z,0.5860
2023-03-26T10:12:28.222Z,0.5816
2023-03-26T10:13:29.928Z,0.5786
2023-03-26T10:14:31.532Z,0.5946
2023-03-26T10:15:33.198Z,0.6046
2023-03-26T10:16:34.880Z,0.6064
2023-03-26T10:17:37.179Z,0.6043
2023-03-26T10:18:38.166Z,0.5983
2023-03-26T10:19:39.808Z,0.5949
2023-03-26T10:20:41.434Z,0.5886
2023-03-26T10:21:43.096Z,0.5938
2023-03-26T10:22:44.742Z,0.5879
2023-03-26T10:23:46.425Z,0.5842
2023-03-26T10:24:48.044Z,0.5800
2023-03-26T10:25:49.745Z,0.5788
2023-03-26T10:27:08.589Z,0.5730
2023-03-26T10:27:53.014Z,0.5738
2023-03-26T10:28:54.677Z,0.5680
2023-03-26T10:29:56.325Z,0.5612
2023-03-26T10:30:58.118Z,0.5693
2023-03-26T10:31:59.616Z,0.5790
2023-03-26T10:33:01.324Z,0.5714
2023-03-26T10:34:02.959Z,0.5702
2023-03-26T10:35:04.555Z,0.5672
2023-03-26T10:36:06.251Z,0.5668
2023-03-26T10:37:07.851Z,0.5664
2023-03-26T10:38:09.527Z,0.5631
2023-03-26T10:39:11.183Z,0.5557
2023-03-26T10:40:12.830Z,0.5547
2023-03-26T10:41:14.491Z,0.5477
2023-03-26T10:42:16.123Z,0.5540
2023-03-26T10:43:17.763Z,0.5468
2023-03-26T10:44:19.508Z,0.5497
2023-03-26T10:45:21.096Z,0.5472
2023-03-26T10:46:22.772Z,0.5414
2023-03-26T10:47:24.432Z,0.5383
2023-03-26T10:48:26.054Z,0.5290
2023-03-26T10:49:27.750Z,0.5205
2023-03-26T10:50:29.362Z,0.5208
2023-03-26T10:51:30.972Z,0.5225
2023-03-26T10:52:32.670Z,0.5244
2023-03-26T10:53:34.295Z,0.5150
2023-03-26T10:54:35.999Z,0.4964
2023-03-26T10:55:37.596Z,0.4841
2023-03-26T10:56:39.290Z,0.4823
2023-03-26T10:57:40.896Z,0.4900
2023-03-26T10:58:48.590Z,0.4955
2023-03-26T10:59:44.247Z,0.4913
2023-03-26T11:00:45.892Z,0.4850
2023-03-26T11:01:47.524Z,0.4886
2023-03-26T11:02:49.225Z,0.4951
2023-03-26T11:03:50.827Z,0.4939
2023-03-26T11:04:52.517Z,0.4867
2023-03-26T11:05:54.191Z,0.4809
2023-03-26T11:06:55.800Z,0.4871
2023-03-26T11:07:57.430Z,0.4962
2023-03-26T11:08:59.136Z,0.4901
2023-03-26T11:10:00.746Z,0.4908
2023-03-26T11:11:02.395Z,0.4876
2023-03-26T11:12:26.223Z,0.4972
2023-03-26T11:13:05.691Z,0.5008
2023-03-26T11:14:07.339Z,0.5008
2023-03-26T11:15:09.106Z,0.5035
2023-03-26T11:16:10.642Z,0.5064
2023-03-26T11:17:14.915Z,0.5171
2023-03-26T11:18:13.963Z,0.5305
2023-03-26T11:19:15.591Z,0.5292
2023-03-26T11:20:17.292Z,0.5338
2023-03-26T11:21:20.635Z,0.5416
2023-03-26T11:22:20.527Z,0.5323
2023-03-26T11:23:22.211Z,0.5385
2023-03-26T11:24:23.812Z,0.5430
2023-03-26T11:25:25.532Z,0.5434
2023-03-26T11:26:27.137Z,0.5450
2023-03-26T11:27:28.792Z,0.5496
2023-03-26T11:28:30.446Z,0.5461
2023-03-26T11:29:33.494Z,0.5460
2023-03-26T11:30:33.767Z,0.5416
2023-03-26T11:31:35.433Z,0.5387
2023-03-26T11:32:37.070Z,0.5443
2023-03-26T11:33:38.689Z,0.5418
2023-03-26T11:34:40.347Z,0.5380
2023-03-26T11:35:42.013Z,0.5329
2023-03-26T11:36:43.630Z,0.5291
2023-03-26T11:37:45.308Z,0.5291
2023-03-26T11:38:46.965Z,0.5308
2023-03-26T11:39:48.584Z,0.5323
2023-03-26T11:40:50.249Z,0.5393
2023-03-26T11:41:51.901Z,0.5460
2023-03-26T11:42:53.540Z,0.5440
2023-03-26T11:43:55.217Z,0.5590
2023-03-26T11:44:56.861Z,0.5758
2023-03-26T11:45:58.550Z,0.5992
2023-03-26T11:47:00.126Z,0.6130
2023-03-26T11:48:01.854Z,0.6163
2023-03-26T11:49:03.407Z,0.6206
2023-03-26T11:50:05.143Z,0.6190
2023-03-26T11:51:06.783Z,0.6238
2023-03-26T11:52:08.393Z,0.6254
2023-03-26T11:53:10.039Z,0.6164
2023-03-26T11:54:11.714Z,0.6182
2023-03-26T11:55:13.343Z,0.6127
2023-03-26T11:56:15.174Z,0.6112
2023-03-26T11:57:16.694Z,0.6125
2023-03-26T11:58:18.307Z,0.6174
2023-03-26T11:59:21.650Z,0.6209
2023-03-26T12:00:21.607Z,0.6298
2023-03-26T12:01:23.250Z,0.6383
2023-03-26T12:02:25.076Z,0.6364
2023-03-26T12:03:26.551Z,0.6379
2023-03-26T12:04:30.604Z,0.6428
2023-03-26T12:05:29.840Z,0.6401
2023-03-26T12:06:31.536Z,0.6344
2023-03-26T12:07:33.146Z,0.6242
2023-03-26T12:08:34.814Z,0.6261
2023-03-26T12:09:36.444Z,0.6257
2023-03-26T12:10:38.543Z,0.6248
2023-03-26T12:11:39.771Z,0.6227
2023-03-26T12:12:41.424Z,0.6172
2023-03-26T12:13:43.052Z,0.6141
2023-03-26T12:14:44.703Z,0.6107
2023-03-26T12:15:46.350Z,0.6061
2023-03-26T12:16:48.060Z,0.5989
2023-03-26T12:17:49.651Z,0.5952
2023-03-26T12:18:51.307Z,0.5949
2023-03-26T12:19:52.947Z,0.6141
2023-03-26T12:20:54.734Z,0.6165
2023-03-26T12:21:56.265Z,0.6043
2023-03-26T12:22:57.913Z,0.6017
2023-03-26T12:23:59.548Z,0.5997
2023-03-26T12:25:01.200Z,0.5961
2023-03-26T12:26:02.837Z,0.5957
2023-03-26T12:27:04.527Z,0.5883
2023-03-26T12:28:06.155Z,0.5887
2023-03-26T12:29:07.817Z,0.5962
2023-03-26T12:30:09.443Z,0.5993
2023-03-26T12:31:11.123Z,0.5940
2023-03-26T12:32:12.745Z,0.5974
2023-03-26T12:33:14.477Z,0.5897
2023-03-26T12:34:16.034Z,0.5856
2023-03-26T12:35:17.712Z,0.5771
2023-03-26T12:36:19.338Z,0.5769
2023-03-26T12:37:21.053Z,0.5834
2023-03-26T12:38:22.638Z,0.5810
2023-03-26T12:40:07.521Z,0.5763
2023-03-26T12:40:25.965Z,0.5798
2023-03-26T12:44:47.535Z,0.5821
2023-03-26T12:44:49.730Z,0.5819
2023-03-26T12:44:54.131Z,0.5781
2023-03-26T12:44:56.034Z,0.5811
2023-03-26T12:45:36.098Z,0.5674
2023-03-26T12:47:58.656Z,0.5604
2023-03-26T12:48:01.145Z,0.5595
2023-03-26T12:48:39.227Z,0.5635